Time;durP1;ratioP1;P1;durP2;ratioP2;P2;SDS_P1;SDS_P2;PMS_P1;PMS_P2;Temp;Humidity;BMP_temperature;BMP_pressure;BME280_temperature;BME280_humidity;BME280_pressure;Samples;Min_cycle;Max_cycle;Signal;HPM_P1;HPM_P2
2022/10/30 00:00:28;;;;;;;0.88;0.88;;;12.80;99.90;;;;;;5051573;28;20045;-77
2022/10/30 00:02:54;;;;;;;;;;;12.70;99.90;;;;;;5036962;28;20044;-77
2022/10/30 00:05:20;;;;;;;0.50;0.50;;;12.70;99.90;;;;;;5037731;28;19925;-78
2022/10/30 00:07:47;;;;;;;0.50;0.50;;;12.80;99.90;;;;;;5038449;28;20055;-77
2022/10/30 00:10:13;;;;;;;0.32;0.32;;;12.80;99.90;;;;;;5038533;28;20528;-77
2022/10/30 00:12:38;;;;;;;0.63;0.63;;;12.80;99.90;;;;;;5039439;28;20044;-75
2022/10/30 00:15:05;;;;;;;0.30;0.30;;;12.80;99.90;;;;;;5035745;28;20041;-75
2022/10/30 00:17:30;;;;;;;0.55;0.55;;;12.80;99.90;;;;;;5037624;28;20049;-74
2022/10/30 00:19:56;;;;;;;0.40;0.40;;;12.80;99.90;;;;;;5036662;28;20471;-74
2022/10/30 00:22:22;;;;;;;0.40;0.40;;;12.90;99.90;;;;;;5037916;28;20052;-76
2022/10/30 00:24:47;;;;;;;1.13;1.02;;;12.90;99.90;;;;;;5019644;28;20142;-76
2022/10/30 00:27:13;;;;;;;0.47;0.47;;;12.90;99.90;;;;;;5039802;28;20130;-76
2022/10/30 00:29:39;;;;;;;0.77;0.77;;;12.90;99.90;;;;;;5038501;28;20379;-77
2022/10/30 00:32:04;;;;;;;0.88;0.88;;;12.90;99.90;;;;;;5036791;28;20045;-78
2022/10/30 00:34:30;;;;;;;1.95;1.35;;;12.90;99.90;;;;;;5039482;28;20045;-76
2022/10/30 00:36:56;;;;;;;0.57;0.57;;;13.00;99.90;;;;;;5036718;28;20464;-76
2022/10/30 00:39:22;;;;;;;0.65;0.65;;;13.00;99.90;;;;;;5039906;28;20048;-76
2022/10/30 00:41:47;;;;;;;0.45;0.45;;;13.10;99.90;;;;;;5039171;28;20059;-75
2022/10/30 00:44:35;;;;;;;0.55;0.55;;;13.10;99.90;;;;;;5024555;28;20044;-77
2022/10/30 00:47:03;;;;;;;0.30;0.30;;;13.20;99.90;;;;;;5061208;28;20139;-77
2022/10/30 00:49:37;;;;;;;0.75;0.60;;;13.20;99.90;;;;;;5043271;28;20460;-77
2022/10/30 00:52:07;;;;;;;0.40;0.40;;;13.30;99.90;;;;;;5041941;28;20078;-76
2022/10/30 00:54:34;;;;;;;0.47;0.47;;;13.30;99.90;;;;;;5042668;28;20542;-77
2022/10/30 00:57:02;;;;;;;0.75;0.65;;;13.40;99.90;;;;;;5044064;28;20719;-77
2022/10/30 00:59:31;;;;;;;0.40;0.40;;;13.40;99.90;;;;;;5041279;28;20037;-77
2022/10/30 01:01:59;;;;;;;0.40;0.40;;;13.40;99.90;;;;;;5044094;28;20040;-75
2022/10/30 01:04:26;;;;;;;2.15;1.40;;;13.50;99.90;;;;;;5026448;28;20048;-76
2022/10/30 01:06:52;;;;;;;1.17;1.10;;;13.50;99.90;;;;;;5041361;28;20049;-75
2022/10/30 01:09:18;;;;;;;;;;;13.50;99.90;;;;;;5042316;28;20834;-76
2022/10/30 01:11:44;;;;;;;0.73;0.73;;;13.50;99.90;;;;;;5035157;28;19921;-77
2022/10/30 01:14:14;;;;;;;0.47;0.47;;;13.50;99.90;;;;;;5008788;28;20048;-76
2022/10/30 01:17:04;;;;;;;0.60;0.60;;;13.40;99.90;;;;;;5054981;28;20138;-76
2022/10/30 01:19:42;;;;;;;0.30;0.30;;;13.40;99.90;;;;;;5038872;28;20102;-76
2022/10/30 01:22:18;;;;;;;0.60;0.60;;;13.40;99.90;;;;;;5040253;28;20190;-76
2022/10/30 01:24:56;;;;;;;3.40;1.25;;;13.40;99.90;;;;;;5042207;28;20186;-75
2022/10/30 01:27:43;;;;;;;0.40;0.40;;;13.40;99.90;;;;;;5025415;28;20506;-75
2022/10/30 01:30:32;;;;;;;0.80;0.80;;;13.40;99.90;;;;;;5024926;28;20040;-76
2022/10/30 01:33:26;;;;;;;1.02;1.02;;;13.40;99.90;;;;;;5042622;28;20073;-75
2022/10/30 01:35:58;;;;;;;0.68;0.68;;;13.40;99.90;;;;;;5042496;28;20122;-75
2022/10/30 01:38:34;;;;;;;0.80;0.80;;;13.40;99.90;;;;;;5040627;28;20044;-76
2022/10/30 01:40:59;;;;;;;0.68;0.68;;;13.40;99.90;;;;;;5042005;28;20109;-76
2022/10/30 01:43:25;;;;;;;0.40;0.40;;;13.50;99.90;;;;;;5028046;28;20490;-76
2022/10/30 01:46:02;;;;;;;0.60;0.60;;;13.50;99.90;;;;;;5058512;28;20041;-74
2022/10/30 01:48:53;;;;;;;0.60;0.60;;;13.50;99.90;;;;;;5041259;28;20060;-75
2022/10/30 01:51:25;;;;;;;0.98;0.98;;;13.50;99.90;;;;;;5038715;28;20056;-74
2022/10/30 01:54:03;;;;;;;0.75;0.75;;;13.40;99.90;;;;;;5044462;28;20473;-75
2022/10/30 01:56:42;;;;;;;0.20;0.20;;;13.40;99.90;;;;;;5041704;28;20040;-74
2022/10/30 01:59:21;;;;;;;0.95;0.95;;;13.40;99.90;;;;;;5041453;28;20032;-75
2022/10/30 02:01:47;;;;;;;0.65;0.65;;;13.50;99.90;;;;;;5058639;28;20037;-75
2022/10/30 02:04:13;;;;;;;1.45;1.05;;;13.50;99.90;;;;;;5029021;28;20071;-74
2022/10/30 02:06:39;;;;;;;2.67;1.67;;;13.40;99.90;;;;;;5043287;28;20045;-74
2022/10/30 02:09:06;;;;;;;0.70;0.70;;;13.50;99.90;;;;;;5028912;28;20052;-75
2022/10/30 02:11:33;;;;;;;0.75;0.75;;;13.50;99.90;;;;;;5027866;28;20049;-75
2022/10/30 02:14:03;;;;;;;0.60;0.60;;;13.60;99.90;;;;;;5045132;28;20037;-75
2022/10/30 02:16:29;;;;;;;0.40;0.40;;;13.60;99.90;;;;;;5028119;28;20044;-74
2022/10/30 02:18:55;;;;;;;1.15;1.02;;;13.60;99.90;;;;;;5045462;28;20067;-75
2022/10/30 02:21:21;;;;;;;0.63;0.60;;;13.60;99.90;;;;;;5026766;28;20069;-76
2022/10/30 02:23:46;;;;;;;1.23;1.15;;;13.60;99.90;;;;;;5025169;28;20044;-75
2022/10/30 02:26:12;;;;;;;0.50;0.50;;;13.60;99.90;;;;;;5004240;28;20049;-73
2022/10/30 02:28:37;;;;;;;0.50;0.50;;;13.60;99.90;;;;;;5043563;28;20045;-75
2022/10/30 02:31:04;;;;;;;0.88;0.82;;;13.60;99.90;;;;;;5041320;28;20086;-75
2022/10/30 02:33:30;;;;;;;1.88;1.13;;;13.60;99.90;;;;;;5044078;28;20045;-76
2022/10/30 02:35:55;;;;;;;1.45;1.35;;;13.60;99.90;;;;;;5026849;28;20040;-76
2022/10/30 02:38:21;;;;;;;1.55;0.65;;;13.60;99.90;;;;;;5040145;28;20041;-75
2022/10/30 02:40:47;;;;;;;1.25;1.15;;;13.60;99.90;;;;;;5024155;28;20080;-76
2022/10/30 02:43:12;;;;;;;0.63;0.63;;;13.60;99.90;;;;;;5043709;28;20048;-75
2022/10/30 02:45:38;;;;;;;0.60;0.60;;;13.60;99.90;;;;;;5027088;28;20071;-75
2022/10/30 02:48:04;;;;;;;1.45;1.30;;;13.60;99.90;;;;;;5014618;28;20041;-75
2022/10/30 02:50:29;;;;;;;4.10;1.70;;;13.60;99.90;;;;;;5025045;28;21867;-76
2022/10/30 02:52:57;;;;;;;1.17;0.80;;;13.60;99.90;;;;;;5042311;28;20045;-77
2022/10/30 02:55:23;;;;;;;0.88;0.80;;;13.60;99.90;;;;;;5022532;28;20988;-78
2022/10/30 02:57:49;;;;;;;0.90;0.90;;;13.60;99.90;;;;;;5044170;28;20036;-76
2022/10/30 03:00:14;;;;;;;0.98;0.65;;;13.50;99.90;;;;;;5040222;28;20482;-75
2022/10/30 03:02:40;;;;;;;2.30;1.10;;;13.40;99.90;;;;;;5040514;28;20041;-75
2022/10/30 03:05:06;;;;;;;0.55;0.55;;;13.40;99.90;;;;;;5031259;28;20037;-76
2022/10/30 03:07:32;;;;;;;0.68;0.68;;;13.40;99.90;;;;;;5039326;28;20063;-76
2022/10/30 03:09:57;;;;;;;8.38;1.02;;;13.30;99.90;;;;;;5041464;28;20457;-76
2022/10/30 03:12:23;;;;;;;0.30;0.30;;;13.20;99.90;;;;;;5025014;28;20033;-75
2022/10/30 03:14:49;;;;;;;0.30;0.30;;;13.20;99.90;;;;;;5038398;28;20040;-76
2022/10/30 03:17:14;;;;;;;0.63;0.63;;;13.10;99.90;;;;;;5037103;28;20064;-75
2022/10/30 03:19:40;;;;;;;0.63;0.63;;;13.10;99.90;;;;;;5006729;28;20098;-76
2022/10/30 03:22:06;;;;;;;0.75;0.75;;;13.10;99.90;;;;;;5021920;28;20044;-76
2022/10/30 03:24:32;;;;;;;1.10;0.90;;;13.20;99.90;;;;;;5038901;28;20044;-76
2022/10/30 03:26:57;;;;;;;0.43;0.43;;;13.00;99.90;;;;;;5038149;28;20093;-75
2022/10/30 03:29:23;;;;;;;0.40;0.40;;;13.00;99.90;;;;;;5037532;28;20048;-76
2022/10/30 03:31:49;;;;;;;0.40;0.40;;;13.00;99.90;;;;;;5039936;28;20052;-76
2022/10/30 03:34:14;;;;;;;0.50;0.50;;;13.10;99.90;;;;;;5039261;28;20540;-77
2022/10/30 03:36:40;;;;;;;0.30;0.30;;;13.20;99.90;;;;;;5038479;28;20049;-74
2022/10/30 03:39:06;;;;;;;1.17;1.17;;;13.20;99.90;;;;;;5005886;28;20076;-75
2022/10/30 03:41:31;;;;;;;1.15;1.05;;;13.20;99.90;;;;;;5007651;28;20040;-75
2022/10/30 03:43:57;;;;;;;0.63;0.63;;;13.30;99.90;;;;;;5004159;28;20052;-74
2022/10/30 03:46:24;;;;;;;0.80;0.80;;;13.30;99.90;;;;;;5006016;28;20096;-76
2022/10/30 03:48:50;;;;;;;0.60;0.60;;;13.20;99.90;;;;;;5037084;28;20044;-74
2022/10/30 03:51:16;;;;;;;0.70;0.70;;;13.20;99.90;;;;;;5039068;28;20098;-75
2022/10/30 03:53:41;;;;;;;;;;;13.20;99.90;;;;;;5040268;28;20398;-75
2022/10/30 03:56:09;;;;;;;2.38;0.88;;;13.20;99.90;;;;;;5039543;28;19920;-75
2022/10/30 03:58:34;;;;;;;0.50;0.50;;;13.10;99.90;;;;;;5040882;28;20386;-76
2022/10/30 04:01:05;;;;;;;0.60;0.60;;;13.20;99.90;;;;;;5022239;28;20056;-75
2022/10/30 04:03:31;;;;;;;0.70;0.70;;;12.80;99.90;;;;;;5050908;28;20124;-73
2022/10/30 04:05:58;;;;;;;0.60;0.60;;;13.10;99.90;;;;;;5020973;28;20332;-75
2022/10/30 04:08:24;;;;;;;0.30;0.30;;;13.10;99.90;;;;;;5039288;28;20079;-75
2022/10/30 04:10:49;;;;;;;0.32;0.32;;;13.10;99.90;;;;;;5037046;28;20115;-75
2022/10/30 04:13:16;;;;;;;0.63;0.63;;;13.10;99.90;;;;;;5037911;28;20387;-75
2022/10/30 04:15:42;;;;;;;1.75;1.65;;;13.10;99.90;;;;;;5039179;28;20152;-75
2022/10/30 04:18:10;;;;;;;1.27;1.27;;;13.00;99.90;;;;;;5038642;28;20073;-75
2022/10/30 04:20:36;;;;;;;1.40;1.30;;;13.00;99.90;;;;;;5038974;28;20597;-75
2022/10/30 04:23:05;;;;;;;0.35;0.35;;;12.90;99.90;;;;;;5038246;28;20052;-74
2022/10/30 04:25:32;;;;;;;1.13;1.08;;;12.90;99.90;;;;;;5020593;28;20041;-75
2022/10/30 04:27:58;;;;;;;0.50;0.50;;;12.90;99.90;;;;;;5038288;28;20044;-76
2022/10/30 04:30:26;;;;;;;0.30;0.30;;;12.90;99.90;;;;;;5020366;28;20041;-75
2022/10/30 04:32:53;;;;;;;1.60;1.50;;;12.80;99.90;;;;;;5039656;28;20048;-75
2022/10/30 04:35:21;;;;;;;0.73;0.70;;;12.70;99.90;;;;;;5046667;28;20041;-75
2022/10/30 04:38:11;;;;;;;1.27;1.15;;;12.70;99.90;;;;;;5037430;28;20084;-75
2022/10/30 04:40:38;;;;;;;0.40;0.40;;;12.70;99.90;;;;;;5050102;28;20072;-76
2022/10/30 04:43:06;;;;;;;1.20;0.77;;;12.70;99.90;;;;;;5035780;28;20099;-76
2022/10/30 04:45:31;;;;;;;0.40;0.40;;;12.60;99.90;;;;;;5021459;28;20055;-76
2022/10/30 04:48:12;;;;;;;0.30;0.30;;;12.60;99.90;;;;;;5040076;28;21662;-76
2022/10/30 04:50:38;;;;;;;1.08;1.08;;;12.60;99.90;;;;;;5049084;28;20052;-74
2022/10/30 04:53:06;;;;;;;1.08;0.70;;;12.60;99.90;;;;;;5021675;28;20033;-75
2022/10/30 04:55:32;;;;;;;1.42;1.33;;;12.60;99.90;;;;;;5039149;28;20545;-75
2022/10/30 04:57:59;;;;;;;0.73;0.73;;;12.60;99.90;;;;;;5036288;28;20041;-75
2022/10/30 05:00:26;;;;;;;0.63;0.55;;;12.60;99.90;;;;;;5021391;28;20045;-75
2022/10/30 05:02:52;;;;;;;0.43;0.43;;;12.50;99.90;;;;;;5024694;28;20678;-75
2022/10/30 05:05:18;;;;;;;0.40;0.40;;;12.50;99.90;;;;;;5038276;28;20024;-75
2022/10/30 05:07:44;;;;;;;0.40;0.40;;;12.40;99.90;;;;;;5036547;28;20061;-74
2022/10/30 05:10:13;;;;;;;4.07;2.17;;;12.40;99.90;;;;;;5017004;28;20053;-75
2022/10/30 05:12:41;;;;;;;0.52;0.52;;;12.40;99.90;;;;;;5036601;28;20394;-77
2022/10/30 05:15:07;;;;;;;0.77;0.47;;;12.40;99.90;;;;;;5041105;28;20045;-77
2022/10/30 05:17:32;;;;;;;0.30;0.30;;;12.40;99.90;;;;;;5054932;28;20048;-76
2022/10/30 05:19:58;;;;;;;0.52;0.52;;;12.50;99.90;;;;;;5036080;28;20041;-79
2022/10/30 05:22:24;;;;;;;0.65;0.65;;;12.50;99.90;;;;;;5015086;28;20052;-77
2022/10/30 05:24:49;;;;;;;0.75;0.75;;;12.50;99.90;;;;;;5024160;28;20052;-76
2022/10/30 05:27:15;;;;;;;1.25;1.20;;;12.50;99.90;;;;;;5021077;28;20036;-79
2022/10/30 05:29:41;;;;;;;0.70;0.70;;;12.50;99.90;;;;;;5042046;28;20040;-79
2022/10/30 05:32:06;;;;;;;0.40;0.40;;;12.40;99.90;;;;;;5041428;28;20141;-79
2022/10/30 05:34:32;;;;;;;0.60;0.60;;;12.40;99.90;;;;;;5058874;28;20051;-76
2022/10/30 05:36:58;;;;;;;0.35;0.35;;;12.40;99.90;;;;;;5040938;28;20044;-77
2022/10/30 05:39:23;;;;;;;0.43;0.43;;;12.30;99.90;;;;;;5043218;28;20403;-77
2022/10/30 05:41:49;;;;;;;0.73;0.73;;;12.30;99.90;;;;;;5026633;28;20102;-77
2022/10/30 05:44:15;;;;;;;3.80;1.17;;;12.30;99.90;;;;;;5041611;28;20044;-78
2022/10/30 05:46:41;;;;;;;0.98;0.93;;;12.30;99.90;;;;;;5022335;28;20127;-77
2022/10/30 05:49:07;;;;;;;0.60;0.50;;;12.20;99.90;;;;;;5044161;28;20044;-77
2022/10/30 05:51:32;;;;;;;0.30;0.30;;;12.20;99.90;;;;;;5058465;28;20045;-78
2022/10/30 05:53:58;;;;;;;0.40;0.40;;;12.10;99.90;;;;;;5041325;28;20044;-78
2022/10/30 05:56:24;;;;;;;0.35;0.35;;;12.00;99.90;;;;;;5043462;28;20473;-77
2022/10/30 05:58:50;;;;;;;0.47;0.47;;;11.90;99.90;;;;;;5057358;28;20037;-77
2022/10/30 06:01:16;;;;;;;0.30;0.30;;;11.90;99.90;;;;;;5042622;28;20037;-76
2022/10/30 06:03:42;;;;;;;;;;;11.80;99.90;;;;;;5028820;28;20330;-77
2022/10/30 06:06:08;;;;;;;0.38;0.38;;;11.70;99.90;;;;;;5061692;28;19924;-78
2022/10/30 06:08:33;;;;;;;0.40;0.40;;;11.70;99.90;;;;;;5043966;28;20135;-77
2022/10/30 06:11:02;;;;;;;0.82;0.82;;;11.70;99.90;;;;;;5042840;28;20045;-77
2022/10/30 06:13:28;;;;;;;2.45;1.48;;;11.70;99.90;;;;;;5026587;28;20043;-78
2022/10/30 06:15:55;;;;;;;0.47;0.47;;;11.70;99.90;;;;;;5041366;28;20049;-78
2022/10/30 06:18:21;;;;;;;0.30;0.30;;;11.60;99.90;;;;;;5041498;28;20442;-78
2022/10/30 06:20:47;;;;;;;0.55;0.50;;;11.60;99.90;;;;;;5042126;28;20057;-78
2022/10/30 06:23:14;;;;;;;0.50;0.50;;;11.60;99.90;;;;;;5022580;28;20838;-78
2022/10/30 06:25:39;;;;;;;0.60;0.60;;;11.60;99.90;;;;;;5037799;28;20055;-78
2022/10/30 06:28:06;;;;;;;0.50;0.50;;;11.60;99.90;;;;;;5041616;28;20040;-78
2022/10/30 06:30:33;;;;;;;0.75;0.50;;;11.60;99.90;;;;;;5025615;28;20086;-78
2022/10/30 06:33:00;;;;;;;0.45;0.45;;;11.60;99.90;;;;;;5028508;28;20493;-78
2022/10/30 06:35:26;;;;;;;0.47;0.47;;;11.70;99.90;;;;;;5027642;28;20115;-77
2022/10/30 06:37:54;;;;;;;0.55;0.55;;;11.70;99.90;;;;;;5041897;28;20556;-77
2022/10/30 06:40:20;;;;;;;0.60;0.60;;;11.80;99.90;;;;;;5057246;28;20055;-78
2022/10/30 06:42:46;;;;;;;;;;;11.80;99.90;;;;;;5026545;28;20041;-77
2022/10/30 06:45:13;;;;;;;0.40;0.40;;;11.80;99.90;;;;;;5041207;28;20389;-76
2022/10/30 06:47:39;;;;;;;1.00;0.85;;;11.90;99.90;;;;;;5027265;28;20295;-79
2022/10/30 06:50:06;;;;;;;;;;;11.90;99.90;;;;;;5038485;28;20529;-77
2022/10/30 06:52:32;;;;;;;0.70;0.70;;;11.90;99.90;;;;;;5040601;28;19921;-77
2022/10/30 06:54:58;;;;;;;0.40;0.40;;;12.00;99.90;;;;;;5028826;28;20040;-78
2022/10/30 06:57:23;;;;;;;0.50;0.50;;;12.00;99.90;;;;;;5044569;28;20474;-77
2022/10/30 06:59:55;;;;;;;0.60;0.60;;;12.00;99.90;;;;;;5028022;28;20128;-78
2022/10/30 07:02:21;;;;;;;0.60;0.60;;;12.10;99.90;;;;;;5010978;28;20124;-77
2022/10/30 07:04:46;;;;;;;0.50;0.50;;;12.10;99.90;;;;;;5042541;28;20052;-78
2022/10/30 07:07:13;;;;;;;1.15;1.00;;;12.10;99.90;;;;;;5043387;28;20045;-77
2022/10/30 07:09:38;;;;;;;0.70;0.70;;;12.10;99.90;;;;;;5044788;28;20418;-77
2022/10/30 07:12:05;;;;;;;0.30;0.30;;;12.20;99.90;;;;;;5040715;28;20041;-77
2022/10/30 07:14:30;;;;;;;0.50;0.50;;;12.20;99.90;;;;;;5021286;28;20049;-77
2022/10/30 07:16:56;;;;;;;0.30;0.30;;;12.20;99.90;;;;;;5028555;28;20040;-77
2022/10/30 07:19:22;;;;;;;1.60;1.50;;;12.30;99.90;;;;;;5040643;28;20898;-77
2022/10/30 07:21:48;;;;;;;;;;;12.30;99.90;;;;;;5038031;28;20049;-77
2022/10/30 07:24:14;;;;;;;0.88;0.85;;;12.40;99.90;;;;;;5040135;28;19932;-77
2022/10/30 07:26:39;;;;;;;0.45;0.45;;;12.40;99.90;;;;;;5024562;28;20106;-78
2022/10/30 07:29:05;;;;;;;0.40;0.40;;;12.30;99.90;;;;;;5040192;28;20520;-77
2022/10/30 07:31:31;;;;;;;0.30;0.30;;;12.40;99.90;;;;;;5041331;28;20043;-77
2022/10/30 07:33:57;;;;;;;0.40;0.40;;;12.40;99.90;;;;;;5057791;28;20049;-77
2022/10/30 07:36:23;;;;;;;1.02;1.02;;;12.40;99.90;;;;;;5042417;28;20059;-79
2022/10/30 07:38:49;;;;;;;0.30;0.30;;;12.40;99.90;;;;;;5024516;28;20049;-77
2022/10/30 07:41:17;;;;;;;0.40;0.40;;;12.50;99.90;;;;;;5044930;28;20478;-77
2022/10/30 07:43:43;;;;;;;0.60;0.60;;;12.50;99.90;;;;;;5038761;28;20439;-76
2022/10/30 07:46:09;;;;;;;0.65;0.65;;;12.50;99.90;;;;;;5042815;28;20040;-78
2022/10/30 07:48:35;;;;;;;0.80;0.80;;;12.60;99.90;;;;;;5043414;28;20371;-78
2022/10/30 07:51:01;;;;;;;0.52;0.52;;;12.70;99.90;;;;;;5007971;28;20069;-76
2022/10/30 07:53:27;;;;;;;1.30;1.27;;;12.80;99.90;;;;;;5004740;28;20044;-77
2022/10/30 07:55:52;;;;;;;0.40;0.40;;;12.80;99.90;;;;;;5053897;28;20120;-79
2022/10/30 07:58:18;;;;;;;0.50;0.50;;;12.90;99.90;;;;;;5021635;28;20051;-78
2022/10/30 08:00:44;;;;;;;0.50;0.50;;;12.90;99.90;;;;;;5017956;28;20125;-78
2022/10/30 08:03:11;;;;;;;1.45;1.35;;;12.90;99.90;;;;;;5017973;28;20049;-79
2022/10/30 08:05:37;;;;;;;0.95;0.95;;;13.00;99.90;;;;;;5022761;28;20616;-78
2022/10/30 08:08:03;;;;;;;0.65;0.65;;;13.10;99.90;;;;;;4988290;28;20055;-78
2022/10/30 08:10:28;;;;;;;0.40;0.40;;;13.20;99.90;;;;;;5034814;28;20073;-77
2022/10/30 08:12:54;;;;;;;0.30;0.30;;;13.30;99.90;;;;;;5018637;28;20032;-77
2022/10/30 08:15:20;;;;;;;1.30;0.63;;;13.30;99.90;;;;;;5005802;28;20065;-75
2022/10/30 08:17:48;;;;;;;0.40;0.40;;;13.30;99.90;;;;;;5006480;28;20044;-76
2022/10/30 08:20:16;;;;;;;0.45;0.32;;;13.40;99.90;;;;;;5036288;28;20043;-76
2022/10/30 08:22:50;;;;;;;0.43;0.43;;;13.60;99.90;;;;;;5053580;28;20040;-76
2022/10/30 08:25:18;;;;;;;0.40;0.40;;;13.60;99.90;;;;;;5040311;28;20045;-76
2022/10/30 08:28:04;;;;;;;0.98;0.95;;;13.70;99.90;;;;;;5037376;28;20083;-75
2022/10/30 08:30:35;;;;;;;0.40;0.40;;;14.00;99.90;;;;;;5042830;28;20045;-78
2022/10/30 08:33:06;;;;;;;1.33;1.15;;;13.90;99.90;;;;;;5037446;28;20065;-77
2022/10/30 08:35:32;;;;;;;0.65;0.65;;;14.00;99.90;;;;;;5036978;28;20033;-77
2022/10/30 08:37:59;;;;;;;0.40;0.40;;;14.10;99.90;;;;;;5041982;28;20047;-77
2022/10/30 08:40:25;;;;;;;1.50;1.40;;;14.20;99.90;;;;;;5039684;28;20045;-76
2022/10/30 08:42:56;;;;;;;0.45;0.45;;;14.20;99.90;;;;;;5041828;28;20414;-76
2022/10/30 08:45:23;;;;;;;1.77;1.67;;;14.30;99.90;;;;;;5041731;28;20533;-76
2022/10/30 08:48:04;;;;;;;1.08;1.08;;;14.30;99.90;;;;;;5022060;28;20036;-76
2022/10/30 08:50:31;;;;;;;0.70;0.70;;;14.40;99.90;;;;;;5055309;28;20084;-77
2022/10/30 08:53:02;;;;;;;0.93;0.73;;;14.50;99.90;;;;;;5052533;28;20057;-76
2022/10/30 08:55:28;;;;;;;0.77;0.77;;;14.60;99.90;;;;;;5037810;28;21812;-75
2022/10/30 08:57:54;;;;;;;0.98;0.93;;;14.60;99.90;;;;;;5037151;28;20209;-73
2022/10/30 09:00:20;;;;;;;0.40;0.40;;;14.70;99.90;;;;;;5040893;28;20397;-76
2022/10/30 09:02:45;;;;;;;4.00;1.67;;;14.70;99.90;;;;;;5040697;28;20053;-75
2022/10/30 09:05:11;;;;;;;0.50;0.50;;;15.20;99.90;;;;;;5043259;28;20383;-75
2022/10/30 09:07:37;;;;;;;0.50;0.50;;;15.00;99.90;;;;;;5042635;28;20041;-75
2022/10/30 09:10:03;;;;;;;0.50;0.50;;;15.00;99.90;;;;;;5039308;28;20045;-75
2022/10/30 09:12:29;;;;;;;0.50;0.50;;;15.10;99.90;;;;;;5039920;28;20044;-75
2022/10/30 09:14:55;;;;;;;0.30;0.30;;;15.20;99.90;;;;;;5039466;28;20036;-75
2022/10/30 09:17:20;;;;;;;0.70;0.63;;;15.30;99.90;;;;;;5040179;28;20053;-75
2022/10/30 09:19:46;;;;;;;1.50;0.73;;;15.40;99.90;;;;;;5043206;28;20036;-74
2022/10/30 09:22:12;;;;;;;0.77;0.77;;;15.50;99.90;;;;;;5040681;28;20047;-74
2022/10/30 09:24:38;;;;;;;;;;;15.50;99.90;;;;;;5041031;28;20565;-74
2022/10/30 09:27:05;;;;;;;0.98;0.85;;;15.60;99.90;;;;;;5042096;28;20003;-75
2022/10/30 09:29:31;;;;;;;0.60;0.60;;;15.80;99.90;;;;;;5041635;28;20457;-77
2022/10/30 09:32:00;;;;;;;0.40;0.40;;;15.80;99.90;;;;;;5041855;28;20044;-74
2022/10/30 09:34:26;;;;;;;0.80;0.80;;;15.90;99.90;;;;;;5039290;28;21629;-73
2022/10/30 09:36:52;;;;;;;0.20;0.20;;;16.00;99.90;;;;;;5039869;28;20171;-74
2022/10/30 09:39:18;;;;;;;;;;;16.20;99.90;;;;;;5036551;28;20072;-75
2022/10/30 09:41:56;;;;;;;0.30;0.30;;;16.20;99.90;;;;;;5040641;28;20063;-74
2022/10/30 09:44:57;;;;;;;3.58;1.02;;;16.40;99.90;;;;;;5018994;28;20076;-74
2022/10/30 09:47:32;;;;;;;0.55;0.55;;;16.50;99.90;;;;;;5038579;28;20040;-74
2022/10/30 09:50:10;;;;;;;1.15;1.13;;;16.60;99.90;;;;;;5033636;28;20053;-74
2022/10/30 09:52:52;;;;;;;1.95;1.15;;;16.70;99.90;;;;;;5037832;28;20588;-74
2022/10/30 09:55:42;;;;;;;0.75;0.75;;;16.80;99.90;;;;;;5038328;28;20064;-75
2022/10/30 09:58:40;;;;;;;1.17;1.15;;;16.90;99.90;;;;;;5038087;28;20045;-74
2022/10/30 10:01:27;;;;;;;;;;;17.00;99.90;;;;;;5037165;28;20047;-74
2022/10/30 10:04:26;;;;;;;1.63;1.53;;;17.10;99.90;;;;;;5040439;28;20756;-75
2022/10/30 10:07:03;;;;;;;0.93;0.93;;;17.10;99.90;;;;;;5033711;28;20543;-76
2022/10/30 10:09:33;;;;;;;0.50;0.50;;;17.10;99.90;;;;;;5041064;28;20110;-74
2022/10/30 10:12:11;;;;;;;0.60;0.60;;;17.20;99.90;;;;;;5037233;28;20564;-75
2022/10/30 10:14:42;;;;;;;0.68;0.68;;;17.20;99.90;;;;;;5038726;28;20053;-75
2022/10/30 10:17:17;;;;;;;1.75;1.10;;;17.20;99.90;;;;;;5038022;28;21712;-75
2022/10/30 10:19:58;;;;;;;0.40;0.40;;;17.20;99.90;;;;;;5038966;28;20053;-74
2022/10/30 10:22:44;;;;;;;0.30;0.30;;;17.30;99.90;;;;;;5040454;28;20032;-73
2022/10/30 10:25:14;;;;;;;0.20;0.20;;;17.50;99.90;;;;;;5050379;28;20123;-74
2022/10/30 10:28:26;;;;;;;1.08;0.98;;;17.60;99.90;;;;;;5036700;28;20056;-74
2022/10/30 10:31:08;;;;;;;0.50;0.50;;;17.70;99.90;;;;;;5040131;28;20461;-75
2022/10/30 10:33:59;;;;;;;0.40;0.40;;;17.80;99.90;;;;;;5040620;28;20542;-76
2022/10/30 10:36:46;;;;;;;1.13;1.13;;;17.90;99.90;;;;;;5037453;28;20051;-75
2022/10/30 10:39:26;;;;;;;0.50;0.50;;;18.00;99.90;;;;;;5042587;28;20386;-75
2022/10/30 10:42:05;;;;;;;0.20;0.20;;;17.90;99.90;;;;;;5040849;28;20041;-75
2022/10/30 10:44:37;;;;;;;0.65;0.50;;;17.90;99.90;;;;;;5039058;28;20045;-74
2022/10/30 10:47:34;;;;;;;0.82;0.82;;;18.00;99.90;;;;;;5038693;28;20041;-75
2022/10/30 10:50:13;;;;;;;;;;;18.00;99.90;;;;;;5038360;28;20786;-74
2022/10/30 10:52:45;;;;;;;0.85;0.85;;;18.10;99.90;;;;;;5041090;28;20484;-75
2022/10/30 10:55:17;;;;;;;0.63;0.63;;;18.20;99.90;;;;;;5025499;28;20045;-75
2022/10/30 10:57:45;;;;;;;0.52;0.52;;;18.30;99.90;;;;;;5040000;28;20033;-75
2022/10/30 11:00:19;;;;;;;0.57;0.57;;;18.40;99.90;;;;;;5021858;28;20060;-75
2022/10/30 11:02:59;;;;;;;0.47;0.47;;;18.50;99.90;;;;;;5054250;28;20037;-74
2022/10/30 11:05:35;;;;;;;0.88;0.85;;;18.50;99.90;;;;;;5041727;28;20037;-76
2022/10/30 11:08:20;;;;;;;0.30;0.30;;;18.50;99.90;;;;;;5038343;28;20041;-77
2022/10/30 11:10:50;;;;;;;0.60;0.60;;;18.60;99.90;;;;;;5032732;28;20048;-75
2022/10/30 11:13:16;;;;;;;0.43;0.43;;;18.60;99.90;;;;;;5052696;28;20041;-74
2022/10/30 11:15:46;;;;;;;;;;;18.70;99.90;;;;;;5044032;28;20149;-75
2022/10/30 11:18:14;;;;;;;0.57;0.57;;;18.70;99.90;;;;;;5041974;28;19931;-75
2022/10/30 11:20:54;;;;;;;0.75;0.75;;;18.80;99.90;;;;;;5025339;28;20482;-76
2022/10/30 11:23:33;;;;;;;0.65;0.65;;;18.80;99.90;;;;;;5034581;28;20045;-75
2022/10/30 11:26:00;;;;;;;0.50;0.50;;;18.90;99.90;;;;;;5036882;28;20125;-76
2022/10/30 11:29:01;;;;;;;0.40;0.40;;;19.10;99.90;;;;;;5053436;28;20713;-76
2022/10/30 11:31:34;;;;;;;0.40;0.40;;;19.30;99.90;;;;;;5035577;28;20049;-76
2022/10/30 11:34:18;;;;;;;1.55;0.75;;;19.20;99.90;;;;;;5039942;28;20501;-75
2022/10/30 11:36:44;;;;;;;0.35;0.35;;;19.90;99.90;;;;;;5038735;28;20033;-76
2022/10/30 11:39:20;;;;;;;0.40;0.40;;;19.40;99.90;;;;;;5040461;28;20076;-76
2022/10/30 11:42:24;;;;;;;0.50;0.50;;;19.50;99.90;;;;;;5041284;28;20060;-74
2022/10/30 11:44:50;;;;;;;0.90;0.90;;;19.50;99.90;;;;;;5034714;28;20056;-75
2022/10/30 11:47:22;;;;;;;0.30;0.30;;;19.60;99.90;;;;;;5024263;28;20094;-75
2022/10/30 11:49:52;;;;;;;0.77;0.77;;;19.40;99.90;;;;;;5038549;28;20060;-75
2022/10/30 11:52:25;;;;;;;0.75;0.75;;;19.40;99.90;;;;;;5037919;28;20093;-75
2022/10/30 11:55:37;;;;;;;0.50;0.50;;;19.50;99.90;;;;;;5033022;28;21751;-75
2022/10/30 11:58:05;;;;;;;0.50;0.50;;;19.40;99.90;;;;;;5036963;28;20688;-75
2022/10/30 12:00:33;;;;;;;0.45;0.45;;;19.40;99.90;;;;;;5036447;28;20041;-75
2022/10/30 12:03:00;;;;;;;0.28;0.28;;;19.30;99.90;;;;;;5035480;28;20402;-77
2022/10/30 12:05:34;;;;;;;0.30;0.30;;;18.60;99.90;;;;;;4997446;28;20041;-77
2022/10/30 12:08:06;;;;;;;0.30;0.30;;;19.10;99.90;;;;;;5035779;28;20041;-77
2022/10/30 12:10:54;;;;;;;0.50;0.50;;;19.10;99.90;;;;;;5034569;28;20453;-76
2022/10/30 12:13:22;;;;;;;0.40;0.40;;;19.10;99.90;;;;;;5033640;28;20502;-77
2022/10/30 12:15:50;;;;;;;0.65;0.65;;;19.10;99.90;;;;;;5046645;28;20036;-77
2022/10/30 12:18:26;;;;;;;0.47;0.47;;;19.10;99.90;;;;;;5036601;28;20037;-78
2022/10/30 12:20:55;;;;;;;0.20;0.20;;;19.10;99.90;;;;;;5034996;28;20049;-77
2022/10/30 12:23:24;;;;;;;0.57;0.20;;;19.10;99.90;;;;;;5035513;28;20431;-77
2022/10/30 12:26:08;;;;;;;0.65;0.65;;;19.10;99.90;;;;;;5035438;28;20044;-75
2022/10/30 12:28:34;;;;;;;0.60;0.60;;;19.10;99.90;;;;;;5035692;28;20060;-76
2022/10/30 12:31:02;;;;;;;0.52;0.35;;;19.20;99.90;;;;;;5033994;28;20068;-75
2022/10/30 12:33:57;;;;;;;0.30;0.30;;;19.30;99.90;;;;;;5046959;28;21798;-75
2022/10/30 12:36:26;;;;;;;0.35;0.35;;;19.30;99.90;;;;;;5041849;28;20478;-76
2022/10/30 12:38:54;;;;;;;0.38;0.38;;;19.40;99.90;;;;;;5023496;28;20121;-73
2022/10/30 12:41:27;;;;;;;0.30;0.30;;;19.40;99.90;;;;;;5039544;28;21031;-73
2022/10/30 12:44:07;;;;;;;0.25;0.25;;;19.40;99.90;;;;;;5038358;28;20939;-76
2022/10/30 12:46:45;;;;;;;0.30;0.30;;;19.40;99.90;;;;;;5039761;28;20064;-74
2022/10/30 12:49:29;;;;;;;0.50;0.50;;;19.40;99.90;;;;;;5054764;28;20075;-74
2022/10/30 12:52:09;;;;;;;0.20;0.20;;;19.40;99.90;;;;;;5039123;28;20140;-76
2022/10/30 12:54:53;;;;;;;0.25;0.25;;;19.40;99.90;;;;;;5039386;28;20049;-75
2022/10/30 12:57:30;;;;;;;0.20;0.20;;;19.30;99.90;;;;;;5040617;28;20651;-76
2022/10/30 13:00:05;;;;;;;0.20;0.20;;;19.30;99.90;;;;;;5038784;28;20033;-75
2022/10/30 13:03:01;;;;;;;0.38;0.38;;;19.30;99.90;;;;;;5038903;28;20087;-76
2022/10/30 13:05:35;;;;;;;0.20;0.20;;;19.30;99.90;;;;;;5034787;28;20385;-76